ベロオリゾンテ の空港の天気 - METARとTAF

タンクレド・ネヴェス国際空港 ( SBCF / CNF ) - ブラジル ミナスジェライス州ベロオリゾンテ
飛行場実況気象(Metar)
観測時間02/17 20:00 BRT (02/17 23:00 UTC)
風向・風速北東 4m/s
視程400m
天気現象弱い雨 霧
全天の8割程度の雲 雲底高度 60m
全天を覆う雲 雲底高度 2740m
気温19℃
湿度100%
気圧1018hPa
METARSBCF 172300Z 04008KT 0400 R34/1900 R16/P2000 -RA FG BKN002 BKN0 25 OVC090 19/19 Q1018 RETS
過去の天気等 Google飛行場航空写真 Wunderground天気予報

過去48時間のMETAR

飛行場予報(TAF)
発表時間: 2/17 13:00 BRT (2/17 16:00 UTC)
予報対象時間: 17日15時 BRT ~ 18日15時 BRT
風向・風速西北西 4m/s
視程10km以上
全天の8割程度の雲 雲底高度 550m
17日15時 BRT から 確率 30% で
視程7000m
天気現象雷雨
全天の8割程度の雲 雲底高度 460m
少しの積乱雲 雲底高度 910m
17日19時 BRT ~ 17日21時 BRT に徐々に
風向・風速北東 3m/s
全天の4割程度の雲 雲底高度 610m
18日1時 BRT から
風向・風速北北西 3m/s
視程8000m
全天の8割程度の雲 雲底高度 370m
18日2時 BRT から 確率 40% で
視程2000m
天気現象雨 もや
全天の8割程度の雲 雲底高度 150m
18日8時 BRT ~ 18日10時 BRT に徐々に
風向・風速北西 4m/s
全天の8割程度の雲 雲底高度 520m
18日12時 BRT ~ 18日14時 BRT に徐々に
全天の4割程度の雲 雲底高度 760m
TAF SBCF 171600Z 1718/1818 30007KT 9999 BKN018 TN18/1808Z TX26/1817Z
PROB30 1718/1723 7000 TSRA BKN015 FEW030CB
BECMG 1722/1724 04005KT SCT020
FM180400 34005KT 8000 BKN012
PROB40 1805/1811 2000 RA BR BKN005
BECMG 1811/1813 32008KT BKN017
BECMG 1815/1817 SCT025 RMK PEJ